createdAt,value
2023-01-01T00:00:12.806Z,36.23
2023-01-01T00:02:40.514Z,36.57
2023-01-01T00:05:10.230Z,38.67
2023-01-01T00:07:38.037Z,40.37
2023-01-01T00:10:25.922Z,33.30
2023-01-01T00:12:53.558Z,43.60
2023-01-01T00:15:21.164Z,37.40
2023-01-01T00:17:48.891Z,33.80
2023-01-01T00:20:18.533Z,32.67
2023-01-01T00:22:55.724Z,31.73
2023-01-01T00:25:24.147Z,29.23
2023-01-01T00:27:52.044Z,29.03
2023-01-01T00:30:19.679Z,35.87
2023-01-01T00:32:54.791Z,33.03
2023-01-01T00:35:25.108Z,32.50
2023-01-01T00:37:53.645Z,28.67
2023-01-01T00:40:21.236Z,22.97
2023-01-01T00:42:48.786Z,24.40
2023-01-01T00:45:21.335Z,25.97
2023-01-01T00:47:50.522Z,34.40
2023-01-01T00:50:20.064Z,25.27
2023-01-01T00:52:49.797Z,21.40
2023-01-01T00:55:18.760Z,26.30
2023-01-01T00:57:46.756Z,28.40
2023-01-01T01:00:16.002Z,23.63
2023-01-01T01:02:43.706Z,20.10
2023-01-01T01:05:11.480Z,25.90
2023-01-01T01:07:39.904Z,21.70
2023-01-01T01:10:11.992Z,22.83
2023-01-01T01:12:39.885Z,21.23
2023-01-01T01:15:08.843Z,27.07
2023-01-01T01:17:36.765Z,27.63
2023-01-01T01:20:05.833Z,24.13
2023-01-01T01:22:34.687Z,27.63
2023-01-01T01:25:02.342Z,28.47
2023-01-01T01:27:31.253Z,32.37
2023-01-01T01:29:58.919Z,34.40
2023-01-01T01:32:26.475Z,31.97
2023-01-01T01:34:54.091Z,43.40
2023-01-01T01:37:21.715Z,35.93
2023-01-01T01:39:53.766Z,40.97
2023-01-01T01:42:22.099Z,36.70
2023-01-01T01:44:57.001Z,38.60
2023-01-01T01:47:32.001Z,40.77
2023-01-01T01:50:05.162Z,46.83
2023-01-01T01:52:35.498Z,46.63
2023-01-01T01:55:06.829Z,45.87
2023-01-01T01:57:35.041Z,48.17
2023-01-01T02:00:10.934Z,42.40
2023-01-01T02:02:46.218Z,50.50
2023-01-01T02:05:14.410Z,56.00
2023-01-01T02:07:42.451Z,57.23
2023-01-01T02:10:10.500Z,62.07
2023-01-01T02:12:38.132Z,57.80
2023-01-01T02:15:15.931Z,57.60
2023-01-01T02:17:51.977Z,53.30
2023-01-01T02:20:29.539Z,52.80
2023-01-01T02:23:18.670Z,48.33
2023-01-01T02:26:03.230Z,43.53
2023-01-01T02:28:55.509Z,52.67
2023-01-01T02:31:27.583Z,54.60
2023-01-01T02:34:00.214Z,49.70
2023-01-01T02:36:29.240Z,58.60
2023-01-01T02:39:01.234Z,57.67
2023-01-01T02:41:32.841Z,55.83
2023-01-01T02:46:33.165Z,67.57
2023-01-01T02:49:07.887Z,57.90
2023-01-01T02:51:48.373Z,55.27
2023-01-01T02:54:31.616Z,49.63
2023-01-01T02:57:08.886Z,56.70
2023-01-01T03:00:17.593Z,52.20
2023-01-01T03:02:56.091Z,52.97
2023-01-01T03:05:32.520Z,51.77
2023-01-01T03:08:08.116Z,50.77
2023-01-01T03:10:45.476Z,49.57
2023-01-01T03:13:20.690Z,54.83
2023-01-01T03:15:59.746Z,45.27
2023-01-01T03:18:33.919Z,49.47
2023-01-01T03:21:05.251Z,42.23
2023-01-01T03:23:40.443Z,42.03
2023-01-01T03:26:13.149Z,38.73
2023-01-01T03:28:45.899Z,41.70
2023-01-01T03:31:19.555Z,37.80
2023-01-01T03:33:50.291Z,30.30
2023-01-01T03:36:22.724Z,30.97
2023-01-01T03:38:53.958Z,33.90
2023-01-01T03:41:27.402Z,34.53
2023-01-01T03:44:02.314Z,32.90
2023-01-01T03:46:34.452Z,32.63
2023-01-01T03:49:04.674Z,33.50
2023-01-01T03:51:44.256Z,30.73
2023-01-01T03:54:23.507Z,32.27
2023-01-01T03:56:59.274Z,34.80
2023-01-01T03:59:34.210Z,35.57
2023-01-01T04:02:08.316Z,30.27
2023-01-01T04:04:36.699Z,27.47
2023-01-01T04:07:14.548Z,27.20
2023-01-01T04:09:48.002Z,25.50
2023-01-01T04:12:16.841Z,23.77
2023-01-01T04:14:44.811Z,21.73
2023-01-01T04:17:13.945Z,20.17
2023-01-01T04:19:41.553Z,19.47
2023-01-01T04:22:09.108Z,19.53
2023-01-01T04:24:36.688Z,23.83
2023-01-01T04:27:04.700Z,21.27
2023-01-01T04:29:32.248Z,19.47
2023-01-01T04:31:59.819Z,17.93
2023-01-01T04:34:28.647Z,19.67
2023-01-01T04:36:56.366Z,17.50
2023-01-01T04:39:23.994Z,19.60
2023-01-01T04:41:51.527Z,17.03
2023-01-01T04:44:19.721Z,18.23
2023-01-01T04:46:47.313Z,17.43
2023-01-01T04:49:14.919Z,18.10
2023-01-01T04:51:43.889Z,21.67
2023-01-01T04:54:11.437Z,16.53
2023-01-01T04:56:39.004Z,15.03
2023-01-01T04:59:06.603Z,15.30
2023-01-01T05:01:34.237Z,22.37
2023-01-01T05:04:05.103Z,16.43
2023-01-01T05:06:32.843Z,22.50
2023-01-01T05:09:04.016Z,23.40
2023-01-01T05:11:32.170Z,20.13
2023-01-01T05:14:01.088Z,18.50
2023-01-01T05:16:31.163Z,22.87
2023-01-01T05:18:59.335Z,19.87
2023-01-01T05:21:28.407Z,19.97
2023-01-01T05:23:58.307Z,17.33
2023-01-01T05:26:31.757Z,18.10
2023-01-01T05:29:00.976Z,19.03
2023-01-01T05:31:30.804Z,15.80
2023-01-01T05:36:26.840Z,14.57
2023-01-01T05:38:54.761Z,15.50
2023-01-01T05:41:23.494Z,18.00
2023-01-01T05:43:53.161Z,15.13
2023-01-01T05:46:21.916Z,16.43
2023-01-01T05:48:50.423Z,14.80
2023-01-01T05:51:19.665Z,16.03
2023-01-01T05:53:47.635Z,13.20
2023-01-01T05:56:16.524Z,17.77
2023-01-01T05:58:44.955Z,13.33
2023-01-01T06:01:15.911Z,17.70
2023-01-01T06:03:44.531Z,13.97
2023-01-01T06:06:14.155Z,11.07
2023-01-01T06:08:42.151Z,19.23
2023-01-01T06:11:13.062Z,13.57
2023-01-01T06:13:40.675Z,13.07
2023-01-01T06:16:08.900Z,13.17
2023-01-01T06:18:38.031Z,19.63
2023-01-01T06:21:06.997Z,8.90
2023-01-01T06:23:34.885Z,10.37
2023-01-01T06:26:07.014Z,9.50
2023-01-01T06:28:34.561Z,10.10
2023-01-01T06:31:03.170Z,12.73
2023-01-01T06:33:31.579Z,9.20
2023-01-01T06:36:03.307Z,9.73
2023-01-01T06:38:32.418Z,10.10
2023-01-01T06:41:02.280Z,7.93
2023-01-01T06:43:31.781Z,6.30
2023-01-01T06:46:03.995Z,8.10
2023-01-01T06:48:33.894Z,12.43
2023-01-01T06:51:10.512Z,9.93
2023-01-01T06:53:38.290Z,8.67
2023-01-01T06:56:06.778Z,11.40
2023-01-01T06:58:34.772Z,8.60
2023-01-01T07:01:08.807Z,10.53
2023-01-01T07:03:37.542Z,9.40
2023-01-01T07:06:07.314Z,6.27
2023-01-01T07:08:34.919Z,10.90
2023-01-01T07:11:02.818Z,7.50
2023-01-01T07:13:31.654Z,8.30
2023-01-01T07:15:59.545Z,9.17
2023-01-01T07:18:27.564Z,10.37
2023-01-01T07:20:57.594Z,12.83
2023-01-01T07:23:28.100Z,8.80
2023-01-01T07:25:56.398Z,8.40
2023-01-01T07:28:25.578Z,12.27
2023-01-01T07:30:54.436Z,14.43
2023-01-01T07:33:24.073Z,8.40
2023-01-01T07:35:51.981Z,10.03
2023-01-01T07:38:19.657Z,8.70
2023-01-01T07:40:48.571Z,7.03
2023-01-01T07:43:16.175Z,7.83
2023-01-01T07:45:43.755Z,8.00
2023-01-01T07:48:15.986Z,6.37
2023-01-01T07:50:43.992Z,8.40
2023-01-01T07:53:11.575Z,5.77
2023-01-01T07:55:41.541Z,5.13
2023-01-01T07:58:12.300Z,9.80
2023-01-01T08:00:40.462Z,7.73
2023-01-01T08:03:08.331Z,10.80
2023-01-01T08:05:36.029Z,9.10
2023-01-01T08:08:03.713Z,9.37
2023-01-01T08:10:32.309Z,8.10
2023-01-01T08:13:01.593Z,7.93
2023-01-01T08:15:30.865Z,8.60
2023-01-01T08:17:59.158Z,4.60
2023-01-01T08:20:28.088Z,5.23
2023-01-01T08:23:03.002Z,6.50
2023-01-01T08:25:34.181Z,5.60
2023-01-01T08:28:03.174Z,8.23
2023-01-01T08:30:32.139Z,7.07
2023-01-01T08:32:59.717Z,7.03
2023-01-01T08:35:27.606Z,6.50
2023-01-01T08:37:56.256Z,9.83
2023-01-01T08:40:24.020Z,6.00
2023-01-01T08:42:51.563Z,5.67
2023-01-01T08:45:19.199Z,6.23
2023-01-01T08:47:48.138Z,4.50
2023-01-01T08:50:15.962Z,5.10
2023-01-01T08:52:44.604Z,9.83
2023-01-01T08:55:12.169Z,13.80
2023-01-01T08:57:39.736Z,3.23
2023-01-01T09:00:09.721Z,4.37
2023-01-01T09:02:37.968Z,7.00
2023-01-01T09:05:08.367Z,5.13
2023-01-01T09:07:35.919Z,3.53
2023-01-01T09:10:03.632Z,6.20
2023-01-01T09:12:32.338Z,7.30
2023-01-01T09:15:00.146Z,2.93
2023-01-01T09:17:29.877Z,6.93
2023-01-01T09:19:57.455Z,5.30
2023-01-01T09:22:26.473Z,4.97
2023-01-01T09:24:54.340Z,8.47
2023-01-01T09:27:22.027Z,4.50
2023-01-01T09:29:49.635Z,3.67
2023-01-01T09:32:18.550Z,3.23
2023-01-01T09:34:54.525Z,4.27
2023-01-01T09:37:23.850Z,6.57
2023-01-01T09:39:52.825Z,6.13
2023-01-01T09:42:31.119Z,6.93
2023-01-01T09:45:15.974Z,8.67
2023-01-01T09:47:47.030Z,7.30
2023-01-01T09:50:19.057Z,3.20
2023-01-01T09:52:53.967Z,6.03
2023-01-01T09:55:27.931Z,4.83
2023-01-01T09:57:56.633Z,10.43
2023-01-01T10:00:25.189Z,6.20
2023-01-01T10:03:29.637Z,4.50
2023-01-01T10:06:05.656Z,66.53
2023-01-01T10:08:44.460Z,12.97
2023-01-01T10:11:20.349Z,5.50
2023-01-01T10:13:48.198Z,7.07
2023-01-01T10:16:25.002Z,3.10
2023-01-01T10:18:57.665Z,4.23
2023-01-01T10:21:28.489Z,4.47
2023-01-01T10:23:59.453Z,5.20
2023-01-01T10:26:32.481Z,5.63
2023-01-01T10:29:04.462Z,4.93
2023-01-01T10:31:35.258Z,4.17
2023-01-01T10:34:07.783Z,5.03
2023-01-01T10:36:36.187Z,7.53
2023-01-01T10:39:03.750Z,4.23
2023-01-01T10:41:32.753Z,3.67
2023-01-01T10:44:00.544Z,4.97
2023-01-01T10:46:32.179Z,3.10
2023-01-01T10:49:10.772Z,3.23
2023-01-01T10:51:43.595Z,8.30
2023-01-01T10:54:31.879Z,16.60
2023-01-01T10:57:01.569Z,3.90
2023-01-01T10:59:39.148Z,2.97
2023-01-01T11:02:19.823Z,8.00
2023-01-01T11:04:48.138Z,4.20
2023-01-01T11:07:24.273Z,6.87
2023-01-01T11:10:03.070Z,6.83
2023-01-01T11:15:32.006Z,3.77
2023-01-01T11:18:05.498Z,4.83
2023-01-01T11:20:34.446Z,8.10
2023-01-01T11:23:19.798Z,7.80
2023-01-01T11:26:02.412Z,14.23
2023-01-01T11:28:34.498Z,5.30
2023-01-01T11:31:13.480Z,5.63
2023-01-01T11:33:46.584Z,9.93
2023-01-01T11:36:22.493Z,5.47
2023-01-01T11:38:52.961Z,6.83
2023-01-01T11:41:20.764Z,5.43
2023-01-01T11:43:50.014Z,6.30
2023-01-01T11:46:24.457Z,5.70
2023-01-01T11:48:54.557Z,7.73
2023-01-01T11:51:31.534Z,2.20
2023-01-01T11:54:21.957Z,5.67
2023-01-01T11:56:52.970Z,11.47
2023-01-01T11:59:27.785Z,4.27
2023-01-01T12:01:59.258Z,2.83
2023-01-01T12:04:33.897Z,7.70
2023-01-01T12:07:06.252Z,6.97
2023-01-01T12:09:41.082Z,9.83
2023-01-01T12:12:14.191Z,5.70
2023-01-01T12:14:51.375Z,11.57
2023-01-01T12:17:23.503Z,16.03
2023-01-01T12:20:00.431Z,15.23
2023-01-01T12:22:28.667Z,11.90
2023-01-01T12:24:56.803Z,6.67
2023-01-01T12:27:41.251Z,3.80
2023-01-01T12:30:20.444Z,6.43
2023-01-01T12:33:16.909Z,12.93
2023-01-01T12:35:59.177Z,3.57
2023-01-01T12:39:02.267Z,3.70
2023-01-01T12:41:37.600Z,7.10
2023-01-01T12:44:14.008Z,5.27
2023-01-01T12:46:50.293Z,18.43
2023-01-01T12:49:40.997Z,6.17
2023-01-01T12:52:19.482Z,4.70
2023-01-01T12:55:13.685Z,6.30
2023-01-01T12:57:47.343Z,4.97
2023-01-01T13:00:17.069Z,5.83
2023-01-01T13:02:51.770Z,7.23
2023-01-01T13:05:23.784Z,6.23
2023-01-01T13:07:55.620Z,5.60
2023-01-01T13:10:27.859Z,6.00
2023-01-01T13:12:56.972Z,3.57
2023-01-01T13:15:46.053Z,6.50
2023-01-01T13:18:30.783Z,12.03
2023-01-01T13:21:02.264Z,7.73
2023-01-01T13:23:52.804Z,5.43
2023-01-01T13:26:42.784Z,9.50
2023-01-01T13:29:44.377Z,4.87
2023-01-01T13:32:15.789Z,2.73
2023-01-01T13:35:05.838Z,4.30
2023-01-01T13:37:47.354Z,4.77
2023-01-01T13:40:50.402Z,9.80
2023-01-01T13:43:33.386Z,6.90
2023-01-01T13:46:13.536Z,9.00
2023-01-01T13:49:25.235Z,12.00
2023-01-01T13:52:07.157Z,6.63
2023-01-01T13:55:04.151Z,4.53
2023-01-01T13:58:13.915Z,6.10
2023-01-01T14:00:55.809Z,6.90
2023-01-01T14:03:27.379Z,8.67
2023-01-01T14:06:00.680Z,2.83
2023-01-01T14:08:31.763Z,4.50
2023-01-01T14:11:01.902Z,4.67
2023-01-01T14:13:32.179Z,8.80
2023-01-01T14:16:02.541Z,2.70
2023-01-01T14:18:35.276Z,7.30
2023-01-01T14:21:03.565Z,10.73
2023-01-01T14:23:35.735Z,7.27
2023-01-01T14:26:07.640Z,6.30
2023-01-01T14:28:36.744Z,3.30
2023-01-01T14:31:11.138Z,6.17
2023-01-01T14:33:39.818Z,10.87
2023-01-01T14:36:17.756Z,7.57
2023-01-01T14:38:48.966Z,5.13
2023-01-01T14:41:21.488Z,12.47
2023-01-01T14:43:53.605Z,6.57
2023-01-01T14:46:25.287Z,14.83
2023-01-01T14:48:56.245Z,4.90
2023-01-01T14:51:25.811Z,3.10
2023-01-01T14:53:59.241Z,8.00
2023-01-01T14:56:30.276Z,8.03
2023-01-01T14:59:06.339Z,9.60
2023-01-01T15:01:36.445Z,5.37
2023-01-01T15:04:16.788Z,9.03
2023-01-01T15:06:44.401Z,132.30
2023-01-01T15:09:17.185Z,16.57
2023-01-01T15:11:44.971Z,17.00
2023-01-01T15:14:31.732Z,14.50
2023-01-01T15:17:03.984Z,10.70
2023-01-01T15:19:31.729Z,5.67
2023-01-01T15:22:00.399Z,9.00
2023-01-01T15:24:30.492Z,5.97
2023-01-01T15:26:59.775Z,7.97
2023-01-01T15:29:30.158Z,10.93
2023-01-01T15:31:59.978Z,6.50
2023-01-01T15:34:33.865Z,11.17
2023-01-01T15:37:14.409Z,8.80
2023-01-01T15:39:52.716Z,3.90
2023-01-01T15:42:33.063Z,5.10
2023-01-01T15:45:18.752Z,9.10
2023-01-01T15:47:48.100Z,23.27
2023-01-01T15:50:22.618Z,8.90
2023-01-01T15:52:55.741Z,6.10
2023-01-01T15:55:28.831Z,6.00
2023-01-01T15:57:57.420Z,5.37
2023-01-01T16:00:28.223Z,8.53
2023-01-01T16:03:01.289Z,8.87
2023-01-01T16:05:29.210Z,18.73
2023-01-01T16:08:01.804Z,31.23
2023-01-01T16:10:31.707Z,33.90
2023-01-01T16:13:00.488Z,37.17
2023-01-01T16:15:28.540Z,45.83
2023-01-01T16:17:56.320Z,29.30
2023-01-01T16:20:25.321Z,37.73
2023-01-01T16:22:52.964Z,18.67
2023-01-01T16:25:22.762Z,17.03
2023-01-01T16:27:51.978Z,8.10
2023-01-01T16:30:19.539Z,4.60
2023-01-01T16:32:48.967Z,12.80
2023-01-01T16:35:17.561Z,8.37
2023-01-01T16:37:46.508Z,5.70
2023-01-01T16:40:14.388Z,6.40
2023-01-01T16:42:42.570Z,6.87
2023-01-01T16:45:18.885Z,11.50
2023-01-01T16:47:46.899Z,4.83
2023-01-01T16:50:14.726Z,14.00
2023-01-01T16:52:45.102Z,17.10
2023-01-01T16:55:15.824Z,12.67
2023-01-01T16:57:44.814Z,8.40
2023-01-01T17:00:13.606Z,13.60
2023-01-01T17:02:43.304Z,8.80
2023-01-01T17:05:13.865Z,11.57
2023-01-01T17:07:41.814Z,18.43
2023-01-01T17:10:09.715Z,11.13
2023-01-01T17:12:37.260Z,9.00
2023-01-01T17:15:05.618Z,13.80
2023-01-01T17:17:33.178Z,10.87
2023-01-01T17:20:02.137Z,6.23
2023-01-01T17:22:34.186Z,8.77
2023-01-01T17:25:02.348Z,5.10
2023-01-01T17:27:31.699Z,7.87
2023-01-01T17:29:59.268Z,8.13
2023-01-01T17:32:27.075Z,7.07
2023-01-01T17:34:54.787Z,8.33
2023-01-01T17:37:23.867Z,5.97
2023-01-01T17:39:51.759Z,8.60
2023-01-01T17:42:19.418Z,9.83
2023-01-01T17:44:47.195Z,13.80
2023-01-01T17:47:14.760Z,33.83
2023-01-01T17:49:43.082Z,12.13
2023-01-01T17:52:10.653Z,12.10
2023-01-01T17:54:39.554Z,3.93
2023-01-01T17:57:08.033Z,9.20
2023-01-01T17:59:35.641Z,9.97
2023-01-01T18:02:03.252Z,6.70
2023-01-01T18:04:32.727Z,10.70
2023-01-01T18:07:05.888Z,6.87
2023-01-01T18:09:36.938Z,8.20
2023-01-01T18:12:09.040Z,5.93
2023-01-01T18:14:36.655Z,7.27
2023-01-01T18:17:04.368Z,10.23
2023-01-01T18:19:32.429Z,8.97
2023-01-01T18:22:00.014Z,7.80
2023-01-01T18:24:27.718Z,7.70
2023-01-01T18:26:55.409Z,11.03
2023-01-01T18:29:24.682Z,10.77
2023-01-01T18:31:52.592Z,9.03
2023-01-01T18:34:22.401Z,7.33
2023-01-01T18:36:50.470Z,6.40
2023-01-01T18:39:22.721Z,8.03
2023-01-01T18:42:34.741Z,10.47
2023-01-01T18:45:14.480Z,8.37
2023-01-01T18:47:42.635Z,8.63
2023-01-01T18:50:23.851Z,5.87
2023-01-01T18:52:54.300Z,9.87
2023-01-01T18:55:28.186Z,7.20
2023-01-01T18:58:00.556Z,8.80
2023-01-01T19:00:33.620Z,8.23
2023-01-01T19:03:03.590Z,7.73
2023-01-01T19:05:33.368Z,12.70
2023-01-01T19:08:11.253Z,7.67
2023-01-01T19:10:45.929Z,10.43
2023-01-01T19:13:19.911Z,7.13
2023-01-01T19:15:53.729Z,10.27
2023-01-01T19:18:24.093Z,7.83
2023-01-01T19:20:59.220Z,5.00
2023-01-01T19:23:26.828Z,10.83
2023-01-01T19:26:01.406Z,7.40
2023-01-01T19:28:36.684Z,9.97
2023-01-01T19:31:07.354Z,9.30
2023-01-01T19:33:35.401Z,6.10
2023-01-01T19:36:02.992Z,6.30
2023-01-01T19:38:31.377Z,8.00
2023-01-01T19:40:58.971Z,4.00
2023-01-01T19:43:26.834Z,8.13
2023-01-01T19:45:54.677Z,13.60
2023-01-01T19:48:23.819Z,7.10
2023-01-01T19:50:52.443Z,7.20
2023-01-01T19:53:20.291Z,10.80
2023-01-01T19:55:47.864Z,7.47
2023-01-01T19:58:16.101Z,7.27
2023-01-01T20:00:44.041Z,5.70
2023-01-01T20:03:52.249Z,8.37
2023-01-01T20:06:04.620Z,9.80
2023-01-01T20:08:33.402Z,8.73
2023-01-01T20:11:01.762Z,7.20
2023-01-01T20:13:29.319Z,8.67
2023-01-01T20:15:58.037Z,12.53
2023-01-01T20:18:25.886Z,9.93
2023-01-01T20:21:11.454Z,6.77
2023-01-01T20:23:40.386Z,12.97
2023-01-01T20:26:09.508Z,6.93
2023-01-01T20:28:54.957Z,7.60
2023-01-01T20:31:22.839Z,15.30
2023-01-01T20:33:51.420Z,9.60
2023-01-01T20:36:36.678Z,5.40
2023-01-01T20:39:08.056Z,10.33
2023-01-01T20:41:35.597Z,9.57
2023-01-01T20:44:03.170Z,6.70
2023-01-01T20:46:31.154Z,10.57
2023-01-01T20:48:59.122Z,7.13
2023-01-01T20:51:26.894Z,6.50
2023-01-01T20:53:56.849Z,11.20
2023-01-01T20:56:26.813Z,7.10
2023-01-01T20:59:04.401Z,11.67
2023-01-01T21:01:40.733Z,6.13
2023-01-01T21:04:08.356Z,7.17
2023-01-01T21:06:36.331Z,7.90
2023-01-01T21:09:04.998Z,9.93
2023-01-01T21:11:36.511Z,8.33
2023-01-01T21:14:06.569Z,11.53
2023-01-01T21:16:36.927Z,13.30
2023-01-01T21:19:07.952Z,10.80
2023-01-01T21:21:43.460Z,7.23
2023-01-01T21:24:19.924Z,10.07
2023-01-01T21:26:58.434Z,8.57
2023-01-01T21:29:26.971Z,10.90
2023-01-01T21:32:06.798Z,8.30
2023-01-01T21:34:40.705Z,25.97
2023-01-01T21:37:14.536Z,33.57
2023-01-01T21:39:42.880Z,20.00
2023-01-01T21:42:23.422Z,10.83
2023-01-01T21:44:59.078Z,12.13
2023-01-01T21:47:28.014Z,8.60
2023-01-01T21:49:57.280Z,12.17
2023-01-01T21:52:26.153Z,11.63
2023-01-01T21:54:55.581Z,11.83
2023-01-01T21:57:26.261Z,8.00
2023-01-01T21:59:54.801Z,10.30
2023-01-01T22:02:32.654Z,9.80
2023-01-01T22:05:02.094Z,10.73
2023-01-01T22:10:26.438Z,8.00
2023-01-01T22:12:59.504Z,7.70
2023-01-01T22:15:40.241Z,8.33
2023-01-01T22:18:24.037Z,9.80
2023-01-01T22:20:54.763Z,6.83
2023-01-01T22:23:37.896Z,12.73
2023-01-01T22:26:18.620Z,17.70
2023-01-01T22:28:52.027Z,9.80
2023-01-01T22:31:24.538Z,8.30
2023-01-01T22:33:53.839Z,13.73
2023-01-01T22:36:27.687Z,6.93
2023-01-01T22:39:05.705Z,9.10
2023-01-01T22:41:34.118Z,12.93
2023-01-01T22:44:05.342Z,8.23
2023-01-01T22:46:37.195Z,9.73
2023-01-01T22:49:18.035Z,8.87
2023-01-01T22:51:47.244Z,10.10
2023-01-01T22:54:14.846Z,8.00
2023-01-01T22:56:42.501Z,5.43
2023-01-01T22:59:11.421Z,11.60
2023-01-01T23:01:39.126Z,10.03
2023-01-01T23:04:06.832Z,11.17
2023-01-01T23:06:34.517Z,12.87
2023-01-01T23:09:02.151Z,17.10
2023-01-01T23:11:29.719Z,8.57
2023-01-01T23:14:14.823Z,10.37
2023-01-01T23:16:43.739Z,10.90
2023-01-01T23:19:11.376Z,11.40
2023-01-01T23:21:41.120Z,10.53
2023-01-01T23:24:12.565Z,11.40
2023-01-01T23:26:43.335Z,16.57
2023-01-01T23:29:12.281Z,25.70
2023-01-01T23:31:41.019Z,11.73
2023-01-01T23:34:10.301Z,8.50
2023-01-01T23:36:38.858Z,8.47
2023-01-01T23:39:06.434Z,7.37
2023-01-01T23:41:34.014Z,11.07
2023-01-01T23:44:01.507Z,11.57
2023-01-01T23:46:29.284Z,9.33
2023-01-01T23:48:56.927Z,10.37
2023-01-01T23:51:25.899Z,17.10
2023-01-01T23:53:53.486Z,9.00
2023-01-01T23:56:21.019Z,9.63
2023-01-01T23:58:48.567Z,8.40
